sensor_id;sensor_type;location;lat;lon;timestamp;P1;durP1;ratioP1;P2;durP2;ratioP2
72785;SDS011;60902;53.876;10.674;2022-10-16T00:00:04;6.80;;;4.07;;
72785;SDS011;60902;53.876;10.674;2022-10-16T00:00:15;6.80;;;4.00;;
72785;SDS011;60902;53.876;10.674;2022-10-16T00:00:26;6.00;;;3.75;;
72785;SDS011;60902;53.876;10.674;2022-10-16T00:00:38;5.55;;;3.65;;
72785;SDS011;60902;53.876;10.674;2022-10-16T00:00:50;5.68;;;3.95;;
72785;SDS011;60902;53.876;10.674;2022-10-16T00:01:04;5.78;;;3.78;;
72785;SDS011;60902;53.876;10.674;2022-10-16T00:01:17;5.70;;;3.70;;
72785;SDS011;60902;53.876;10.674;2022-10-16T00:01:30;5.50;;;3.58;;
72785;SDS011;60902;53.876;10.674;2022-10-16T00:01:41;5.40;;;3.50;;
72785;SDS011;60902;53.876;10.674;2022-10-16T00:01:52;5.20;;;3.22;;
72785;SDS011;60902;53.876;10.674;2022-10-16T00:02:03;5.40;;;3.40;;
72785;SDS011;60902;53.876;10.674;2022-10-16T00:02:14;5.90;;;3.72;;
72785;SDS011;60902;53.876;10.674;2022-10-16T00:02:25;6.32;;;3.80;;
72785;SDS011;60902;53.876;10.674;2022-10-16T00:02:37;6.10;;;3.50;;
72785;SDS011;60902;53.876;10.674;2022-10-16T00:02:48;6.13;;;3.53;;
72785;SDS011;60902;53.876;10.674;2022-10-16T00:02:59;5.53;;;3.47;;
72785;SDS011;60902;53.876;10.674;2022-10-16T00:03:10;6.60;;;3.50;;
72785;SDS011;60902;53.876;10.674;2022-10-16T00:03:21;7.07;;;3.55;;
72785;SDS011;60902;53.876;10.674;2022-10-16T00:03:32;6.97;;;3.75;;
72785;SDS011;60902;53.876;10.674;2022-10-16T00:03:44;5.95;;;3.72;;
72785;SDS011;60902;53.876;10.674;2022-10-16T00:03:57;5.45;;;3.72;;
72785;SDS011;60902;53.876;10.674;2022-10-16T00:04:08;5.85;;;3.70;;
72785;SDS011;60902;53.876;10.674;2022-10-16T00:04:20;6.10;;;4.00;;
72785;SDS011;60902;53.876;10.674;2022-10-16T00:04:31;6.10;;;3.97;;
72785;SDS011;60902;53.876;10.674;2022-10-16T00:04:41;6.10;;;4.13;;
72785;SDS011;60902;53.876;10.674;2022-10-16T00:04:52;6.18;;;4.05;;
72785;SDS011;60902;53.876;10.674;2022-10-16T00:05:04;5.95;;;4.05;;
72785;SDS011;60902;53.876;10.674;2022-10-16T00:05:15;5.82;;;3.78;;
72785;SDS011;60902;53.876;10.674;2022-10-16T00:05:26;5.57;;;3.67;;
72785;SDS011;60902;53.876;10.674;2022-10-16T00:05:38;5.38;;;3.60;;
72785;SDS011;60902;53.876;10.674;2022-10-16T00:05:51;5.40;;;3.67;;
72785;SDS011;60902;53.876;10.674;2022-10-16T00:06:02;5.57;;;3.88;;
72785;SDS011;60902;53.876;10.674;2022-10-16T00:06:14;6.00;;;3.85;;
72785;SDS011;60902;53.876;10.674;2022-10-16T00:06:27;6.10;;;3.85;;
72785;SDS011;60902;53.876;10.674;2022-10-16T00:06:39;6.20;;;3.70;;
72785;SDS011;60902;53.876;10.674;2022-10-16T00:06:50;6.03;;;3.60;;
72785;SDS011;60902;53.876;10.674;2022-10-16T00:07:02;5.90;;;3.55;;
72785;SDS011;60902;53.876;10.674;2022-10-16T00:07:13;5.93;;;3.60;;
72785;SDS011;60902;53.876;10.674;2022-10-16T00:07:23;5.85;;;3.72;;
72785;SDS011;60902;53.876;10.674;2022-10-16T00:07:34;6.03;;;3.50;;
72785;SDS011;60902;53.876;10.674;2022-10-16T00:07:45;5.90;;;3.70;;
72785;SDS011;60902;53.876;10.674;2022-10-16T00:07:56;6.07;;;4.15;;
72785;SDS011;60902;53.876;10.674;2022-10-16T00:08:09;6.43;;;4.40;;
72785;SDS011;60902;53.876;10.674;2022-10-16T00:08:22;6.50;;;3.85;;
72785;SDS011;60902;53.876;10.674;2022-10-16T00:08:33;6.18;;;3.50;;
72785;SDS011;60902;53.876;10.674;2022-10-16T00:08:46;5.67;;;3.70;;
72785;SDS011;60902;53.876;10.674;2022-10-16T00:08:57;6.03;;;3.88;;
72785;SDS011;60902;53.876;10.674;2022-10-16T00:09:09;6.20;;;3.90;;
72785;SDS011;60902;53.876;10.674;2022-10-16T00:09:20;5.95;;;3.90;;
72785;SDS011;60902;53.876;10.674;2022-10-16T00:09:31;5.20;;;3.60;;
72785;SDS011;60902;53.876;10.674;2022-10-16T00:09:42;5.00;;;3.38;;
72785;SDS011;60902;53.876;10.674;2022-10-16T00:09:54;5.03;;;3.33;;
72785;SDS011;60902;53.876;10.674;2022-10-16T00:10:05;5.40;;;3.55;;
72785;SDS011;60902;53.876;10.674;2022-10-16T00:10:16;5.43;;;3.60;;
72785;SDS011;60902;53.876;10.674;2022-10-16T00:10:27;5.70;;;3.58;;
72785;SDS011;60902;53.876;10.674;2022-10-16T00:10:38;5.90;;;3.60;;
72785;SDS011;60902;53.876;10.674;2022-10-16T00:10:49;5.60;;;3.65;;
72785;SDS011;60902;53.876;10.674;2022-10-16T00:11:01;5.15;;;3.38;;
72785;SDS011;60902;53.876;10.674;2022-10-16T00:11:15;5.40;;;3.50;;
72785;SDS011;60902;53.876;10.674;2022-10-16T00:11:28;5.45;;;3.47;;
72785;SDS011;60902;53.876;10.674;2022-10-16T00:11:41;5.57;;;3.40;;
72785;SDS011;60902;53.876;10.674;2022-10-16T00:11:52;5.60;;;3.25;;
72785;SDS011;60902;53.876;10.674;2022-10-16T00:12:03;5.38;;;3.40;;
72785;SDS011;60902;53.876;10.674;2022-10-16T00:12:16;5.45;;;3.50;;
72785;SDS011;60902;53.876;10.674;2022-10-16T00:12:27;5.80;;;3.67;;
72785;SDS011;60902;53.876;10.674;2022-10-16T00:12:39;5.95;;;3.55;;
72785;SDS011;60902;53.876;10.674;2022-10-16T00:12:50;5.93;;;3.75;;
72785;SDS011;60902;53.876;10.674;2022-10-16T00:13:01;5.72;;;3.83;;
72785;SDS011;60902;53.876;10.674;2022-10-16T00:13:12;5.47;;;3.72;;
72785;SDS011;60902;53.876;10.674;2022-10-16T00:13:23;5.45;;;3.65;;
72785;SDS011;60902;53.876;10.674;2022-10-16T00:13:34;5.57;;;3.75;;
72785;SDS011;60902;53.876;10.674;2022-10-16T00:13:47;5.80;;;3.67;;
72785;SDS011;60902;53.876;10.674;2022-10-16T00:13:59;5.60;;;3.55;;
72785;SDS011;60902;53.876;10.674;2022-10-16T00:14:13;5.53;;;3.53;;
72785;SDS011;60902;53.876;10.674;2022-10-16T00:14:25;5.60;;;3.72;;
72785;SDS011;60902;53.876;10.674;2022-10-16T00:14:36;5.88;;;4.00;;
72785;SDS011;60902;53.876;10.674;2022-10-16T00:14:47;5.63;;;3.88;;
72785;SDS011;60902;53.876;10.674;2022-10-16T00:14:58;5.50;;;3.55;;
72785;SDS011;60902;53.876;10.674;2022-10-16T00:15:09;5.60;;;3.42;;
72785;SDS011;60902;53.876;10.674;2022-10-16T00:15:20;5.60;;;3.53;;
72785;SDS011;60902;53.876;10.674;2022-10-16T00:15:32;5.30;;;3.50;;
72785;SDS011;60902;53.876;10.674;2022-10-16T00:15:46;5.63;;;3.50;;
72785;SDS011;60902;53.876;10.674;2022-10-16T00:15:57;5.80;;;3.60;;
72785;SDS011;60902;53.876;10.674;2022-10-16T00:16:09;6.03;;;3.92;;
72785;SDS011;60902;53.876;10.674;2022-10-16T00:16:21;5.95;;;4.07;;
72785;SDS011;60902;53.876;10.674;2022-10-16T00:16:32;5.83;;;3.97;;
72785;SDS011;60902;53.876;10.674;2022-10-16T00:16:44;6.07;;;3.88;;
72785;SDS011;60902;53.876;10.674;2022-10-16T00:16:55;6.07;;;3.50;;
72785;SDS011;60902;53.876;10.674;2022-10-16T00:17:06;5.95;;;3.35;;
72785;SDS011;60902;53.876;10.674;2022-10-16T00:17:17;5.85;;;3.40;;
72785;SDS011;60902;53.876;10.674;2022-10-16T00:17:29;5.25;;;3.38;;
72785;SDS011;60902;53.876;10.674;2022-10-16T00:17:40;5.10;;;3.30;;
72785;SDS011;60902;53.876;10.674;2022-10-16T00:17:51;5.25;;;3.28;;
72785;SDS011;60902;53.876;10.674;2022-10-16T00:18:01;5.22;;;3.20;;
72785;SDS011;60902;53.876;10.674;2022-10-16T00:18:12;5.47;;;3.33;;
72785;SDS011;60902;53.876;10.674;2022-10-16T00:18:24;5.20;;;3.23;;
72785;SDS011;60902;53.876;10.674;2022-10-16T00:18:36;5.38;;;3.42;;
72785;SDS011;60902;53.876;10.674;2022-10-16T00:18:48;5.55;;;3.63;;
72785;SDS011;60902;53.876;10.674;2022-10-16T00:18:59;5.80;;;3.67;;
72785;SDS011;60902;53.876;10.674;2022-10-16T00:19:11;5.65;;;3.50;;
72785;SDS011;60902;53.876;10.674;2022-10-16T00:19:22;5.53;;;3.40;;
72785;SDS011;60902;53.876;10.674;2022-10-16T00:19:33;5.22;;;3.42;;
72785;SDS011;60902;53.876;10.674;2022-10-16T00:19:44;5.30;;;3.50;;
72785;SDS011;60902;53.876;10.674;2022-10-16T00:19:55;5.40;;;3.50;;
72785;SDS011;60902;53.876;10.674;2022-10-16T00:20:07;6.00;;;3.78;;
72785;SDS011;60902;53.876;10.674;2022-10-16T00:20:19;6.13;;;3.90;;
72785;SDS011;60902;53.876;10.674;2022-10-16T00:20:30;5.93;;;3.78;;
72785;SDS011;60902;53.876;10.674;2022-10-16T00:20:44;5.65;;;3.63;;
72785;SDS011;60902;53.876;10.674;2022-10-16T00:20:55;5.70;;;3.63;;
72785;SDS011;60902;53.876;10.674;2022-10-16T00:21:12;5.85;;;3.72;;
72785;SDS011;60902;53.876;10.674;2022-10-16T00:21:25;6.10;;;3.70;;
72785;SDS011;60902;53.876;10.674;2022-10-16T00:21:38;5.88;;;3.80;;
72785;SDS011;60902;53.876;10.674;2022-10-16T00:21:49;5.75;;;3.75;;
72785;SDS011;60902;53.876;10.674;2022-10-16T00:22:00;5.63;;;3.70;;
72785;SDS011;60902;53.876;10.674;2022-10-16T00:22:10;5.57;;;3.65;;
72785;SDS011;60902;53.876;10.674;2022-10-16T00:22:21;5.35;;;3.45;;
72785;SDS011;60902;53.876;10.674;2022-10-16T00:22:32;5.35;;;3.50;;
72785;SDS011;60902;53.876;10.674;2022-10-16T00:22:43;5.43;;;3.60;;
72785;SDS011;60902;53.876;10.674;2022-10-16T00:22:54;5.60;;;3.67;;
72785;SDS011;60902;53.876;10.674;2022-10-16T00:23:05;5.93;;;3.80;;
72785;SDS011;60902;53.876;10.674;2022-10-16T00:23:17;5.97;;;3.92;;
72785;SDS011;60902;53.876;10.674;2022-10-16T00:23:29;5.93;;;3.90;;
72785;SDS011;60902;53.876;10.674;2022-10-16T00:23:40;6.07;;;3.70;;
72785;SDS011;60902;53.876;10.674;2022-10-16T00:23:51;6.18;;;3.50;;
72785;SDS011;60902;53.876;10.674;2022-10-16T00:24:04;6.00;;;3.58;;
72785;SDS011;60902;53.876;10.674;2022-10-16T00:24:18;5.55;;;3.40;;
72785;SDS011;60902;53.876;10.674;2022-10-16T00:24:29;5.40;;;3.33;;
72785;SDS011;60902;53.876;10.674;2022-10-16T00:24:40;5.32;;;3.30;;
72785;SDS011;60902;53.876;10.674;2022-10-16T00:24:52;5.60;;;3.53;;
72785;SDS011;60902;53.876;10.674;2022-10-16T00:25:03;5.72;;;3.60;;
72785;SDS011;60902;53.876;10.674;2022-10-16T00:25:14;5.45;;;3.53;;
72785;SDS011;60902;53.876;10.674;2022-10-16T00:25:25;5.10;;;3.45;;
72785;SDS011;60902;53.876;10.674;2022-10-16T00:25:36;5.10;;;3.50;;
72785;SDS011;60902;53.876;10.674;2022-10-16T00:25:54;5.20;;;3.45;;
72785;SDS011;60902;53.876;10.674;2022-10-16T00:26:07;5.97;;;3.70;;
72785;SDS011;60902;53.876;10.674;2022-10-16T00:26:19;6.10;;;3.83;;
72785;SDS011;60902;53.876;10.674;2022-10-16T00:26:32;5.60;;;3.75;;
72785;SDS011;60902;53.876;10.674;2022-10-16T00:26:44;6.00;;;4.03;;
72785;SDS011;60902;53.876;10.674;2022-10-16T00:26:55;6.10;;;4.28;;
72785;SDS011;60902;53.876;10.674;2022-10-16T00:27:06;6.07;;;4.35;;
72785;SDS011;60902;53.876;10.674;2022-10-16T00:27:17;6.25;;;4.25;;
72785;SDS011;60902;53.876;10.674;2022-10-16T00:27:28;6.15;;;4.20;;
72785;SDS011;60902;53.876;10.674;2022-10-16T00:27:39;5.57;;;4.00;;
72785;SDS011;60902;53.876;10.674;2022-10-16T00:27:49;6.00;;;3.75;;
72785;SDS011;60902;53.876;10.674;2022-10-16T00:28:01;5.97;;;3.50;;
72785;SDS011;60902;53.876;10.674;2022-10-16T00:28:12;5.72;;;3.35;;
72785;SDS011;60902;53.876;10.674;2022-10-16T00:28:23;5.60;;;3.58;;
72785;SDS011;60902;53.876;10.674;2022-10-16T00:28:35;5.57;;;3.60;;
72785;SDS011;60902;53.876;10.674;2022-10-16T00:28:46;5.50;;;3.80;;
72785;SDS011;60902;53.876;10.674;2022-10-16T00:28:57;5.78;;;3.92;;
72785;SDS011;60902;53.876;10.674;2022-10-16T00:29:09;6.07;;;4.13;;
72785;SDS011;60902;53.876;10.674;2022-10-16T00:29:20;6.00;;;3.92;;
72785;SDS011;60902;53.876;10.674;2022-10-16T00:29:31;5.78;;;3.78;;
72785;SDS011;60902;53.876;10.674;2022-10-16T00:29:42;5.72;;;3.53;;
72785;SDS011;60902;53.876;10.674;2022-10-16T00:29:53;5.80;;;3.47;;
72785;SDS011;60902;53.876;10.674;2022-10-16T00:30:05;5.85;;;3.50;;
72785;SDS011;60902;53.876;10.674;2022-10-16T00:30:18;5.70;;;3.70;;
72785;SDS011;60902;53.876;10.674;2022-10-16T00:30:29;5.60;;;3.63;;
72785;SDS011;60902;53.876;10.674;2022-10-16T00:30:41;5.13;;;3.30;;
72785;SDS011;60902;53.876;10.674;2022-10-16T00:30:52;5.43;;;3.33;;
72785;SDS011;60902;53.876;10.674;2022-10-16T00:31:03;5.40;;;3.33;;
72785;SDS011;60902;53.876;10.674;2022-10-16T00:31:15;5.43;;;3.25;;
72785;SDS011;60902;53.876;10.674;2022-10-16T00:31:27;5.50;;;3.20;;
72785;SDS011;60902;53.876;10.674;2022-10-16T00:31:39;6.05;;;3.50;;
72785;SDS011;60902;53.876;10.674;2022-10-16T00:31:50;6.68;;;3.83;;
72785;SDS011;60902;53.876;10.674;2022-10-16T00:32:01;6.55;;;4.00;;
72785;SDS011;60902;53.876;10.674;2022-10-16T00:32:13;6.25;;;3.90;;
72785;SDS011;60902;53.876;10.674;2022-10-16T00:32:24;5.45;;;3.63;;
72785;SDS011;60902;53.876;10.674;2022-10-16T00:32:35;5.40;;;3.40;;
72785;SDS011;60902;53.876;10.674;2022-10-16T00:32:46;5.38;;;3.20;;
72785;SDS011;60902;53.876;10.674;2022-10-16T00:32:57;5.60;;;3.40;;
72785;SDS011;60902;53.876;10.674;2022-10-16T00:33:08;5.90;;;3.60;;
72785;SDS011;60902;53.876;10.674;2022-10-16T00:33:18;5.72;;;3.55;;
72785;SDS011;60902;53.876;10.674;2022-10-16T00:33:29;5.47;;;3.35;;
72785;SDS011;60902;53.876;10.674;2022-10-16T00:33:40;5.45;;;3.38;;
72785;SDS011;60902;53.876;10.674;2022-10-16T00:33:53;5.78;;;3.60;;
72785;SDS011;60902;53.876;10.674;2022-10-16T00:34:04;5.57;;;3.60;;
72785;SDS011;60902;53.876;10.674;2022-10-16T00:34:15;5.20;;;3.30;;
72785;SDS011;60902;53.876;10.674;2022-10-16T00:34:26;5.22;;;3.42;;
72785;SDS011;60902;53.876;10.674;2022-10-16T00:34:37;5.30;;;3.50;;
72785;SDS011;60902;53.876;10.674;2022-10-16T00:34:48;5.75;;;3.53;;
72785;SDS011;60902;53.876;10.674;2022-10-16T00:34:59;5.90;;;3.50;;
72785;SDS011;60902;53.876;10.674;2022-10-16T00:35:10;6.20;;;3.67;;
72785;SDS011;60902;53.876;10.674;2022-10-16T00:35:22;5.50;;;3.42;;
72785;SDS011;60902;53.876;10.674;2022-10-16T00:35:33;5.82;;;3.42;;
72785;SDS011;60902;53.876;10.674;2022-10-16T00:35:44;5.68;;;3.30;;
72785;SDS011;60902;53.876;10.674;2022-10-16T00:35:57;5.82;;;3.47;;
72785;SDS011;60902;53.876;10.674;2022-10-16T00:36:09;5.88;;;3.17;;
72785;SDS011;60902;53.876;10.674;2022-10-16T00:36:23;5.50;;;3.00;;
72785;SDS011;60902;53.876;10.674;2022-10-16T00:36:36;5.20;;;3.00;;
72785;SDS011;60902;53.876;10.674;2022-10-16T00:36:47;5.53;;;3.03;;
72785;SDS011;60902;53.876;10.674;2022-10-16T00:36:58;6.20;;;3.20;;
72785;SDS011;60902;53.876;10.674;2022-10-16T00:37:08;6.00;;;3.10;;
72785;SDS011;60902;53.876;10.674;2022-10-16T00:37:19;6.30;;;3.20;;
72785;SDS011;60902;53.876;10.674;2022-10-16T00:37:30;5.72;;;3.17;;
72785;SDS011;60902;53.876;10.674;2022-10-16T00:37:41;5.80;;;3.40;;
72785;SDS011;60902;53.876;10.674;2022-10-16T00:37:53;5.13;;;3.55;;
72785;SDS011;60902;53.876;10.674;2022-10-16T00:38:04;5.30;;;3.75;;
72785;SDS011;60902;53.876;10.674;2022-10-16T00:38:15;5.25;;;3.50;;
72785;SDS011;60902;53.876;10.674;2022-10-16T00:38:27;5.30;;;3.42;;
72785;SDS011;60902;53.876;10.674;2022-10-16T00:38:39;5.40;;;3.28;;
72785;SDS011;60902;53.876;10.674;2022-10-16T00:38:50;5.15;;;3.10;;
72785;SDS011;60902;53.876;10.674;2022-10-16T00:39:03;5.20;;;3.13;;
72785;SDS011;60902;53.876;10.674;2022-10-16T00:39:15;5.40;;;3.40;;
72785;SDS011;60902;53.876;10.674;2022-10-16T00:39:26;5.50;;;3.50;;
72785;SDS011;60902;53.876;10.674;2022-10-16T00:39:37;5.47;;;3.47;;
72785;SDS011;60902;53.876;10.674;2022-10-16T00:39:48;5.55;;;3.45;;
72785;SDS011;60902;53.876;10.674;2022-10-16T00:39:59;5.73;;;3.40;;
72785;SDS011;60902;53.876;10.674;2022-10-16T00:40:10;5.70;;;3.22;;
72785;SDS011;60902;53.876;10.674;2022-10-16T00:40:21;5.65;;;3.20;;
72785;SDS011;60902;53.876;10.674;2022-10-16T00:40:32;5.53;;;3.30;;
72785;SDS011;60902;53.876;10.674;2022-10-16T00:40:43;5.20;;;3.42;;
72785;SDS011;60902;53.876;10.674;2022-10-16T00:40:55;5.07;;;3.42;;
72785;SDS011;60902;53.876;10.674;2022-10-16T00:41:06;5.35;;;3.42;;
72785;SDS011;60902;53.876;10.674;2022-10-16T00:41:20;5.82;;;3.50;;
72785;SDS011;60902;53.876;10.674;2022-10-16T00:41:33;6.30;;;3.55;;
72785;SDS011;60902;53.876;10.674;2022-10-16T00:41:44;6.00;;;3.45;;
72785;SDS011;60902;53.876;10.674;2022-10-16T00:41:55;5.97;;;3.42;;
72785;SDS011;60902;53.876;10.674;2022-10-16T00:42:09;5.38;;;3.38;;
72785;SDS011;60902;53.876;10.674;2022-10-16T00:42:24;5.47;;;3.20;;
72785;SDS011;60902;53.876;10.674;2022-10-16T00:42:36;5.47;;;3.22;;
72785;SDS011;60902;53.876;10.674;2022-10-16T00:42:46;5.40;;;3.30;;
72785;SDS011;60902;53.876;10.674;2022-10-16T00:42:57;5.33;;;3.43;;
72785;SDS011;60902;53.876;10.674;2022-10-16T00:43:12;5.38;;;3.42;;
72785;SDS011;60902;53.876;10.674;2022-10-16T00:43:35;5.53;;;3.22;;
72785;SDS011;60902;53.876;10.674;2022-10-16T00:43:48;6.00;;;3.53;;
72785;SDS011;60902;53.876;10.674;2022-10-16T00:44:02;5.57;;;3.53;;
72785;SDS011;60902;53.876;10.674;2022-10-16T00:44:59;5.43;;;3.58;;
72785;SDS011;60902;53.876;10.674;2022-10-16T00:45:11;5.53;;;3.42;;
72785;SDS011;60902;53.876;10.674;2022-10-16T00:45:23;5.55;;;3.40;;
72785;SDS011;60902;53.876;10.674;2022-10-16T00:45:34;5.20;;;3.03;;
72785;SDS011;60902;53.876;10.674;2022-10-16T00:45:45;5.38;;;3.00;;
72785;SDS011;60902;53.876;10.674;2022-10-16T00:45:56;5.70;;;3.13;;
72785;SDS011;60902;53.876;10.674;2022-10-16T00:46:10;5.88;;;3.28;;
72785;SDS011;60902;53.876;10.674;2022-10-16T00:46:25;5.78;;;3.53;;
72785;SDS011;60902;53.876;10.674;2022-10-16T00:46:40;5.50;;;3.47;;
72785;SDS011;60902;53.876;10.674;2022-10-16T00:46:52;5.75;;;3.53;;
72785;SDS011;60902;53.876;10.674;2022-10-16T00:47:03;6.18;;;3.58;;
72785;SDS011;60902;53.876;10.674;2022-10-16T00:47:15;6.07;;;3.47;;
72785;SDS011;60902;53.876;10.674;2022-10-16T00:47:32;5.18;;;3.20;;
72785;SDS011;60902;53.876;10.674;2022-10-16T00:47:47;5.30;;;3.47;;
72785;SDS011;60902;53.876;10.674;2022-10-16T00:48:01;5.60;;;3.60;;
72785;SDS011;60902;53.876;10.674;2022-10-16T00:48:12;5.78;;;3.70;;
72785;SDS011;60902;53.876;10.674;2022-10-16T00:48:24;5.72;;;3.60;;
72785;SDS011;60902;53.876;10.674;2022-10-16T00:48:36;5.93;;;3.50;;
72785;SDS011;60902;53.876;10.674;2022-10-16T00:48:48;5.85;;;3.25;;
72785;SDS011;60902;53.876;10.674;2022-10-16T00:49:03;5.50;;;3.10;;
72785;SDS011;60902;53.876;10.674;2022-10-16T00:49:17;5.35;;;3.30;;
72785;SDS011;60902;53.876;10.674;2022-10-16T00:49:30;6.40;;;3.42;;
72785;SDS011;60902;53.876;10.674;2022-10-16T00:49:41;7.40;;;3.42;;
72785;SDS011;60902;53.876;10.674;2022-10-16T00:49:53;7.30;;;3.40;;
72785;SDS011;60902;53.876;10.674;2022-10-16T00:50:09;5.43;;;3.30;;
72785;SDS011;60902;53.876;10.674;2022-10-16T00:50:26;5.78;;;3.20;;
72785;SDS011;60902;53.876;10.674;2022-10-16T00:50:40;5.97;;;3.50;;
72785;SDS011;60902;53.876;10.674;2022-10-16T00:50:53;5.43;;;3.35;;
72785;SDS011;60902;53.876;10.674;2022-10-16T00:51:06;5.60;;;3.20;;
72785;SDS011;60902;53.876;10.674;2022-10-16T00:51:17;6.25;;;3.30;;
72785;SDS011;60902;53.876;10.674;2022-10-16T00:51:32;6.25;;;3.40;;
72785;SDS011;60902;53.876;10.674;2022-10-16T00:51:47;5.60;;;3.40;;
72785;SDS011;60902;53.876;10.674;2022-10-16T00:52:00;5.88;;;3.35;;
72785;SDS011;60902;53.876;10.674;2022-10-16T00:52:11;5.88;;;3.35;;
72785;SDS011;60902;53.876;10.674;2022-10-16T00:52:23;6.10;;;3.60;;
72785;SDS011;60902;53.876;10.674;2022-10-16T00:52:35;5.38;;;3.20;;
72785;SDS011;60902;53.876;10.674;2022-10-16T00:52:49;5.38;;;3.00;;
72785;SDS011;60902;53.876;10.674;2022-10-16T00:53:01;5.68;;;3.42;;
72785;SDS011;60902;53.876;10.674;2022-10-16T00:53:13;5.68;;;3.40;;
72785;SDS011;60902;53.876;10.674;2022-10-16T00:53:25;5.53;;;3.33;;
72785;SDS011;60902;53.876;10.674;2022-10-16T00:53:39;5.40;;;3.30;;
72785;SDS011;60902;53.876;10.674;2022-10-16T00:53:50;5.20;;;3.20;;
72785;SDS011;60902;53.876;10.674;2022-10-16T00:54:02;5.28;;;3.22;;
72785;SDS011;60902;53.876;10.674;2022-10-16T00:54:19;5.80;;;3.50;;
72785;SDS011;60902;53.876;10.674;2022-10-16T00:54:33;6.03;;;3.42;;
72785;SDS011;60902;53.876;10.674;2022-10-16T00:54:44;6.32;;;3.35;;
72785;SDS011;60902;53.876;10.674;2022-10-16T00:54:57;6.10;;;3.30;;
72785;SDS011;60902;53.876;10.674;2022-10-16T00:55:08;5.55;;;3.17;;
72785;SDS011;60902;53.876;10.674;2022-10-16T00:55:20;4.90;;;3.08;;
72785;SDS011;60902;53.876;10.674;2022-10-16T00:55:32;5.30;;;3.30;;
72785;SDS011;60902;53.876;10.674;2022-10-16T00:55:43;5.43;;;3.30;;
72785;SDS011;60902;53.876;10.674;2022-10-16T00:55:54;5.33;;;3.13;;
72785;SDS011;60902;53.876;10.674;2022-10-16T00:56:05;5.18;;;3.10;;
72785;SDS011;60902;53.876;10.674;2022-10-16T00:56:16;5.07;;;3.20;;
72785;SDS011;60902;53.876;10.674;2022-10-16T00:56:28;5.85;;;3.40;;
72785;SDS011;60902;53.876;10.674;2022-10-16T00:56:39;6.18;;;3.38;;
72785;SDS011;60902;53.876;10.674;2022-10-16T00:56:51;6.25;;;3.40;;
72785;SDS011;60902;53.876;10.674;2022-10-16T00:57:04;6.18;;;3.40;;
72785;SDS011;60902;53.876;10.674;2022-10-16T00:57:17;5.90;;;3.33;;
72785;SDS011;60902;53.876;10.674;2022-10-16T00:57:27;6.20;;;3.20;;
72785;SDS011;60902;53.876;10.674;2022-10-16T00:57:39;6.57;;;3.30;;
72785;SDS011;60902;53.876;10.674;2022-10-16T00:57:50;6.15;;;3.38;;
72785;SDS011;60902;53.876;10.674;2022-10-16T00:58:01;5.55;;;3.30;;
72785;SDS011;60902;53.876;10.674;2022-10-16T00:58:12;5.43;;;3.05;;
72785;SDS011;60902;53.876;10.674;2022-10-16T00:58:24;5.60;;;3.03;;
72785;SDS011;60902;53.876;10.674;2022-10-16T00:58:35;5.70;;;3.13;;
72785;SDS011;60902;53.876;10.674;2022-10-16T00:58:46;5.28;;;3.22;;
72785;SDS011;60902;53.876;10.674;2022-10-16T00:58:57;5.50;;;3.30;;
72785;SDS011;60902;53.876;10.674;2022-10-16T00:59:16;5.63;;;3.40;;
72785;SDS011;60902;53.876;10.674;2022-10-16T00:59:32;5.50;;;3.50;;
72785;SDS011;60902;53.876;10.674;2022-10-16T00:59:45;5.97;;;3.55;;
72785;SDS011;60902;53.876;10.674;2022-10-16T00:59:57;5.78;;;3.38;;
72785;SDS011;60902;53.876;10.674;2022-10-16T01:00:10;5.57;;;3.13;;
72785;SDS011;60902;53.876;10.674;2022-10-16T01:00:23;5.35;;;3.10;;
72785;SDS011;60902;53.876;10.674;2022-10-16T01:00:35;6.05;;;3.40;;
72785;SDS011;60902;53.876;10.674;2022-10-16T01:00:46;5.95;;;3.60;;
72785;SDS011;60902;53.876;10.674;2022-10-16T01:00:57;5.38;;;3.47;;
72785;SDS011;60902;53.876;10.674;2022-10-16T01:01:08;5.10;;;3.30;;
72785;SDS011;60902;53.876;10.674;2022-10-16T01:01:19;5.22;;;3.45;;
72785;SDS011;60902;53.876;10.674;2022-10-16T01:01:31;5.40;;;3.60;;
72785;SDS011;60902;53.876;10.674;2022-10-16T01:01:42;5.63;;;3.55;;
72785;SDS011;60902;53.876;10.674;2022-10-16T01:01:53;5.37;;;3.30;;
72785;SDS011;60902;53.876;10.674;2022-10-16T01:02:06;5.32;;;3.03;;
72785;SDS011;60902;53.876;10.674;2022-10-16T01:02:18;5.13;;;2.90;;
72785;SDS011;60902;53.876;10.674;2022-10-16T01:02:29;5.30;;;3.13;;
72785;SDS011;60902;53.876;10.674;2022-10-16T01:02:40;5.15;;;3.17;;
72785;SDS011;60902;53.876;10.674;2022-10-16T01:02:52;5.93;;;3.35;;
72785;SDS011;60902;53.876;10.674;2022-10-16T01:03:36;5.53;;;3.00;;
72785;SDS011;60902;53.876;10.674;2022-10-16T01:03:47;5.38;;;3.10;;
72785;SDS011;60902;53.876;10.674;2022-10-16T01:03:58;5.25;;;3.03;;
72785;SDS011;60902;53.876;10.674;2022-10-16T01:04:09;5.10;;;3.00;;
72785;SDS011;60902;53.876;10.674;2022-10-16T01:04:20;5.40;;;3.08;;
72785;SDS011;60902;53.876;10.674;2022-10-16T01:04:34;5.68;;;3.40;;
72785;SDS011;60902;53.876;10.674;2022-10-16T01:04:47;5.78;;;3.72;;
72785;SDS011;60902;53.876;10.674;2022-10-16T01:05:00;5.80;;;3.70;;
72785;SDS011;60902;53.876;10.674;2022-10-16T01:05:12;5.35;;;3.33;;
72785;SDS011;60902;53.876;10.674;2022-10-16T01:05:23;5.07;;;3.10;;
72785;SDS011;60902;53.876;10.674;2022-10-16T01:05:42;5.00;;;3.03;;
72785;SDS011;60902;53.876;10.674;2022-10-16T01:06:04;4.95;;;3.13;;
72785;SDS011;60902;53.876;10.674;2022-10-16T01:06:25;5.60;;;3.08;;
72785;SDS011;60902;53.876;10.674;2022-10-16T01:06:47;6.32;;;3.33;;
72785;SDS011;60902;53.876;10.674;2022-10-16T01:07:10;6.07;;;3.38;;
72785;SDS011;60902;53.876;10.674;2022-10-16T01:07:33;6.05;;;3.50;;
72785;SDS011;60902;53.876;10.674;2022-10-16T01:07:53;5.47;;;3.25;;
72785;SDS011;60902;53.876;10.674;2022-10-16T01:08:12;5.68;;;3.25;;
72785;SDS011;60902;53.876;10.674;2022-10-16T01:08:29;5.88;;;3.30;;
72785;SDS011;60902;53.876;10.674;2022-10-16T01:08:49;5.50;;;3.28;;
72785;SDS011;60902;53.876;10.674;2022-10-16T01:09:14;5.53;;;3.35;;
72785;SDS011;60902;53.876;10.674;2022-10-16T01:09:34;5.70;;;3.50;;
72785;SDS011;60902;53.876;10.674;2022-10-16T01:09:55;5.80;;;3.53;;
72785;SDS011;60902;53.876;10.674;2022-10-16T01:10:14;5.30;;;3.30;;
72785;SDS011;60902;53.876;10.674;2022-10-16T01:10:39;4.95;;;2.95;;
72785;SDS011;60902;53.876;10.674;2022-10-16T01:10:54;5.43;;;3.05;;
72785;SDS011;60902;53.876;10.674;2022-10-16T01:11:11;5.43;;;3.30;;
72785;SDS011;60902;53.876;10.674;2022-10-16T01:11:33;5.38;;;3.30;;
72785;SDS011;60902;53.876;10.674;2022-10-16T01:11:50;5.65;;;3.47;;
72785;SDS011;60902;53.876;10.674;2022-10-16T01:12:10;5.20;;;3.10;;
72785;SDS011;60902;53.876;10.674;2022-10-16T01:12:30;5.15;;;3.10;;
72785;SDS011;60902;53.876;10.674;2022-10-16T01:12:50;5.57;;;3.35;;
72785;SDS011;60902;53.876;10.674;2022-10-16T01:13:07;5.85;;;3.35;;
72785;SDS011;60902;53.876;10.674;2022-10-16T01:13:22;6.07;;;3.80;;
72785;SDS011;60902;53.876;10.674;2022-10-16T01:13:38;5.68;;;3.78;;
72785;SDS011;60902;53.876;10.674;2022-10-16T01:13:53;5.70;;;3.50;;
72785;SDS011;60902;53.876;10.674;2022-10-16T01:14:13;5.82;;;3.55;;
72785;SDS011;60902;53.876;10.674;2022-10-16T01:14:31;5.10;;;3.17;;
72785;SDS011;60902;53.876;10.674;2022-10-16T01:14:52;5.05;;;3.03;;
72785;SDS011;60902;53.876;10.674;2022-10-16T01:15:09;5.00;;;3.10;;
72785;SDS011;60902;53.876;10.674;2022-10-16T01:15:25;6.07;;;3.70;;
72785;SDS011;60902;53.876;10.674;2022-10-16T01:15:42;6.07;;;3.60;;